sensor_id;sensor_type;location;lat;lon;timestamp;pressure;altitude;pressure_sealevel;temperature;humidity
11114;BME280;5610;52.154;9.198;2023-06-22T00:01:57;101012.84;;;20.63;100.00
11114;BME280;5610;52.154;9.198;2023-06-22T00:04:42;101012.66;;;20.74;100.00
11114;BME280;5610;52.154;9.198;2023-06-22T00:07:27;101010.88;;;20.83;100.00
11114;BME280;5610;52.154;9.198;2023-06-22T00:10:13;101012.75;;;20.82;100.00
11114;BME280;5610;52.154;9.198;2023-06-22T00:12:58;101011.72;;;20.83;100.00
11114;BME280;5610;52.154;9.198;2023-06-22T00:15:45;101017.31;;;20.82;100.00
11114;BME280;5610;52.154;9.198;2023-06-22T00:18:30;101007.94;;;20.76;100.00
11114;BME280;5610;52.154;9.198;2023-06-22T00:21:16;101004.13;;;20.69;100.00
11114;BME280;5610;52.154;9.198;2023-06-22T00:24:04;100995.59;;;20.64;100.00
11114;BME280;5610;52.154;9.198;2023-06-22T00:26:50;101003.47;;;20.57;100.00
11114;BME280;5610;52.154;9.198;2023-06-22T00:29:35;100995.13;;;20.51;100.00
11114;BME280;5610;52.154;9.198;2023-06-22T00:32:22;101002.34;;;20.50;100.00
11114;BME280;5610;52.154;9.198;2023-06-22T00:35:07;100989.97;;;20.48;100.00
11114;BME280;5610;52.154;9.198;2023-06-22T00:37:53;100984.28;;;20.41;100.00
11114;BME280;5610;52.154;9.198;2023-06-22T00:40:44;100983.59;;;20.39;100.00
11114;BME280;5610;52.154;9.198;2023-06-22T00:43:29;100986.56;;;20.36;100.00
11114;BME280;5610;52.154;9.198;2023-06-22T00:46:15;100980.91;;;20.29;100.00
11114;BME280;5610;52.154;9.198;2023-06-22T00:49:02;100977.50;;;20.27;100.00
11114;BME280;5610;52.154;9.198;2023-06-22T00:54:34;100974.84;;;20.18;100.00
11114;BME280;5610;52.154;9.198;2023-06-22T00:57:20;100967.00;;;20.24;100.00
11114;BME280;5610;52.154;9.198;2023-06-22T01:00:06;100961.00;;;20.21;100.00
11114;BME280;5610;52.154;9.198;2023-06-22T01:02:53;100966.16;;;20.24;100.00
11114;BME280;5610;52.154;9.198;2023-06-22T01:05:40;100967.16;;;20.23;100.00
11114;BME280;5610;52.154;9.198;2023-06-22T01:08:31;100957.63;;;20.19;100.00
11114;BME280;5610;52.154;9.198;2023-06-22T01:11:23;100954.59;;;20.22;100.00
11114;BME280;5610;52.154;9.198;2023-06-22T01:14:14;100960.00;;;20.22;100.00
11114;BME280;5610;52.154;9.198;2023-06-22T01:17:01;100968.59;;;20.17;100.00
11114;BME280;5610;52.154;9.198;2023-06-22T01:19:49;100974.75;;;20.00;100.00
11114;BME280;5610;52.154;9.198;2023-06-22T01:22:50;100975.47;;;20.02;100.00
11114;BME280;5610;52.154;9.198;2023-06-22T01:25:45;100971.19;;;20.09;100.00
11114;BME280;5610;52.154;9.198;2023-06-22T01:28:47;100963.78;;;20.11;100.00
11114;BME280;5610;52.154;9.198;2023-06-22T01:31:33;100957.75;;;20.17;100.00
11114;BME280;5610;52.154;9.198;2023-06-22T01:34:20;100962.59;;;20.14;100.00
11114;BME280;5610;52.154;9.198;2023-06-22T01:37:06;100952.94;;;20.11;100.00
11114;BME280;5610;52.154;9.198;2023-06-22T01:39:53;100966.31;;;20.13;100.00
11114;BME280;5610;52.154;9.198;2023-06-22T01:42:40;100958.50;;;20.10;100.00
11114;BME280;5610;52.154;9.198;2023-06-22T01:45:28;100960.50;;;20.08;100.00
11114;BME280;5610;52.154;9.198;2023-06-22T01:48:15;100960.66;;;20.06;100.00
11114;BME280;5610;52.154;9.198;2023-06-22T01:51:00;100955.69;;;20.01;100.00
11114;BME280;5610;52.154;9.198;2023-06-22T01:53:46;100962.66;;;19.94;100.00
11114;BME280;5610;52.154;9.198;2023-06-22T01:56:32;100966.56;;;19.82;100.00
11114;BME280;5610;52.154;9.198;2023-06-22T01:59:23;100959.47;;;19.81;100.00
11114;BME280;5610;52.154;9.198;2023-06-22T02:02:14;100953.75;;;19.84;100.00
11114;BME280;5610;52.154;9.198;2023-06-22T02:05:03;100962.44;;;19.88;100.00
11114;BME280;5610;52.154;9.198;2023-06-22T02:07:56;100963.72;;;19.84;100.00
11114;BME280;5610;52.154;9.198;2023-06-22T02:10:45;100960.16;;;19.83;100.00
11114;BME280;5610;52.154;9.198;2023-06-22T02:13:32;100961.31;;;19.81;100.00
11114;BME280;5610;52.154;9.198;2023-06-22T02:16:18;100960.88;;;19.75;100.00
11114;BME280;5610;52.154;9.198;2023-06-22T02:19:05;100954.78;;;19.64;100.00
11114;BME280;5610;52.154;9.198;2023-06-22T02:21:51;100962.03;;;19.63;100.00
11114;BME280;5610;52.154;9.198;2023-06-22T02:24:38;100959.75;;;19.59;100.00
11114;BME280;5610;52.154;9.198;2023-06-22T02:27:23;100966.91;;;19.60;100.00
11114;BME280;5610;52.154;9.198;2023-06-22T02:30:09;100972.31;;;19.60;100.00
11114;BME280;5610;52.154;9.198;2023-06-22T02:32:56;100970.47;;;19.60;100.00
11114;BME280;5610;52.154;9.198;2023-06-22T02:35:44;100972.16;;;19.61;100.00
11114;BME280;5610;52.154;9.198;2023-06-22T02:38:32;100980.97;;;19.63;100.00
11114;BME280;5610;52.154;9.198;2023-06-22T02:41:18;100987.53;;;19.61;100.00
11114;BME280;5610;52.154;9.198;2023-06-22T02:44:04;100985.94;;;19.58;100.00
11114;BME280;5610;52.154;9.198;2023-06-22T02:46:49;100986.81;;;19.59;100.00
11114;BME280;5610;52.154;9.198;2023-06-22T02:49:35;100987.50;;;19.51;100.00
11114;BME280;5610;52.154;9.198;2023-06-22T02:52:22;100986.38;;;19.54;100.00
11114;BME280;5610;52.154;9.198;2023-06-22T02:55:08;100990.78;;;19.55;100.00
11114;BME280;5610;52.154;9.198;2023-06-22T02:57:53;100993.22;;;19.58;100.00
11114;BME280;5610;52.154;9.198;2023-06-22T03:00:39;100985.81;;;19.60;100.00
11114;BME280;5610;52.154;9.198;2023-06-22T03:03:24;100993.75;;;19.52;100.00
11114;BME280;5610;52.154;9.198;2023-06-22T03:06:10;100992.22;;;19.59;100.00
11114;BME280;5610;52.154;9.198;2023-06-22T03:09:01;100984.25;;;19.57;100.00
11114;BME280;5610;52.154;9.198;2023-06-22T03:11:47;100992.94;;;19.61;100.00
11114;BME280;5610;52.154;9.198;2023-06-22T03:14:33;101003.16;;;19.57;100.00
11114;BME280;5610;52.154;9.198;2023-06-22T03:17:19;101002.59;;;19.63;100.00
11114;BME280;5610;52.154;9.198;2023-06-22T03:20:06;100993.91;;;19.69;100.00
11114;BME280;5610;52.154;9.198;2023-06-22T03:22:52;100994.47;;;19.73;100.00
11114;BME280;5610;52.154;9.198;2023-06-22T03:25:40;100992.34;;;19.77;100.00
11114;BME280;5610;52.154;9.198;2023-06-22T03:28:26;100989.31;;;19.80;100.00
11114;BME280;5610;52.154;9.198;2023-06-22T03:31:11;100988.34;;;19.81;100.00
11114;BME280;5610;52.154;9.198;2023-06-22T03:33:57;100970.41;;;19.80;100.00
11114;BME280;5610;52.154;9.198;2023-06-22T03:36:42;100981.94;;;19.82;100.00
11114;BME280;5610;52.154;9.198;2023-06-22T03:39:29;100972.97;;;19.81;100.00
11114;BME280;5610;52.154;9.198;2023-06-22T03:42:16;100981.78;;;19.83;100.00
11114;BME280;5610;52.154;9.198;2023-06-22T03:45:02;100978.09;;;19.84;100.00
11114;BME280;5610;52.154;9.198;2023-06-22T03:47:48;100980.06;;;19.92;100.00
11114;BME280;5610;52.154;9.198;2023-06-22T03:50:33;100986.16;;;19.94;100.00
11114;BME280;5610;52.154;9.198;2023-06-22T03:53:19;100985.16;;;20.05;100.00
11114;BME280;5610;52.154;9.198;2023-06-22T03:56:04;100988.84;;;20.03;100.00
11114;BME280;5610;52.154;9.198;2023-06-22T03:58:51;100986.56;;;20.09;100.00
11114;BME280;5610;52.154;9.198;2023-06-22T04:01:36;100994.25;;;20.03;100.00
11114;BME280;5610;52.154;9.198;2023-06-22T04:04:22;100984.16;;;20.06;100.00
11114;BME280;5610;52.154;9.198;2023-06-22T04:07:08;100974.00;;;20.08;100.00
11114;BME280;5610;52.154;9.198;2023-06-22T04:09:54;100983.88;;;20.09;100.00
11114;BME280;5610;52.154;9.198;2023-06-22T04:12:39;100985.00;;;20.06;100.00
11114;BME280;5610;52.154;9.198;2023-06-22T04:15:26;100981.28;;;20.17;100.00
11114;BME280;5610;52.154;9.198;2023-06-22T04:18:11;100982.38;;;20.24;100.00
11114;BME280;5610;52.154;9.198;2023-06-22T04:20:57;100981.63;;;20.32;100.00
11114;BME280;5610;52.154;9.198;2023-06-22T04:23:42;100985.44;;;20.39;100.00
11114;BME280;5610;52.154;9.198;2023-06-22T04:26:28;100987.28;;;20.48;100.00
11114;BME280;5610;52.154;9.198;2023-06-22T04:29:13;100983.13;;;20.53;100.00
11114;BME280;5610;52.154;9.198;2023-06-22T04:32:00;100978.50;;;20.64;100.00
11114;BME280;5610;52.154;9.198;2023-06-22T04:34:46;100976.88;;;20.71;100.00
11114;BME280;5610;52.154;9.198;2023-06-22T04:37:32;100982.94;;;20.82;100.00
11114;BME280;5610;52.154;9.198;2023-06-22T04:40:17;100983.03;;;20.91;100.00
11114;BME280;5610;52.154;9.198;2023-06-22T04:43:03;100977.56;;;21.00;100.00
11114;BME280;5610;52.154;9.198;2023-06-22T04:45:50;100983.06;;;21.08;100.00
11114;BME280;5610;52.154;9.198;2023-06-22T04:48:37;100980.25;;;21.18;100.00
11114;BME280;5610;52.154;9.198;2023-06-22T04:51:22;100985.63;;;21.28;100.00
11114;BME280;5610;52.154;9.198;2023-06-22T04:54:13;100974.88;;;21.36;100.00
11114;BME280;5610;52.154;9.198;2023-06-22T04:56:58;100987.31;;;21.47;100.00
11114;BME280;5610;52.154;9.198;2023-06-22T04:59:44;100979.97;;;21.57;100.00
11114;BME280;5610;52.154;9.198;2023-06-22T05:02:29;100977.44;;;21.63;100.00
11114;BME280;5610;52.154;9.198;2023-06-22T05:05:17;100977.84;;;21.69;100.00
11114;BME280;5610;52.154;9.198;2023-06-22T05:08:02;100964.44;;;21.67;100.00
11114;BME280;5610;52.154;9.198;2023-06-22T05:10:50;100956.47;;;21.65;100.00
11114;BME280;5610;52.154;9.198;2023-06-22T05:13:36;100961.03;;;21.65;100.00
11114;BME280;5610;52.154;9.198;2023-06-22T05:16:22;100958.84;;;21.69;100.00
11114;BME280;5610;52.154;9.198;2023-06-22T05:19:09;100961.09;;;21.73;100.00
11114;BME280;5610;52.154;9.198;2023-06-22T05:21:55;100955.56;;;21.83;100.00
11114;BME280;5610;52.154;9.198;2023-06-22T05:24:41;100962.41;;;21.95;100.00
11114;BME280;5610;52.154;9.198;2023-06-22T05:27:26;100953.47;;;22.03;100.00
11114;BME280;5610;52.154;9.198;2023-06-22T05:30:12;100963.56;;;22.10;100.00
11114;BME280;5610;52.154;9.198;2023-06-22T05:32:57;100962.56;;;22.19;100.00
11114;BME280;5610;52.154;9.198;2023-06-22T05:35:43;100963.50;;;22.28;100.00
11114;BME280;5610;52.154;9.198;2023-06-22T05:38:29;100960.66;;;22.46;100.00
11114;BME280;5610;52.154;9.198;2023-06-22T05:41:15;100965.28;;;22.62;100.00
11114;BME280;5610;52.154;9.198;2023-06-22T05:44:00;100962.81;;;22.77;100.00
11114;BME280;5610;52.154;9.198;2023-06-22T05:46:46;100966.94;;;22.97;100.00
11114;BME280;5610;52.154;9.198;2023-06-22T05:49:31;100965.97;;;23.22;100.00
11114;BME280;5610;52.154;9.198;2023-06-22T05:52:17;100960.88;;;23.44;100.00
11114;BME280;5610;52.154;9.198;2023-06-22T05:55:04;100962.72;;;23.60;100.00
11114;BME280;5610;52.154;9.198;2023-06-22T05:57:49;100961.75;;;23.69;100.00
11114;BME280;5610;52.154;9.198;2023-06-22T06:00:34;100956.97;;;23.71;100.00
11114;BME280;5610;52.154;9.198;2023-06-22T06:03:20;100965.16;;;23.71;100.00
11114;BME280;5610;52.154;9.198;2023-06-22T06:06:05;100962.59;;;23.69;100.00
11114;BME280;5610;52.154;9.198;2023-06-22T06:08:50;100962.75;;;23.68;100.00
11114;BME280;5610;52.154;9.198;2023-06-22T06:11:36;100960.38;;;23.65;100.00
11114;BME280;5610;52.154;9.198;2023-06-22T06:14:21;100972.63;;;23.61;100.00
11114;BME280;5610;52.154;9.198;2023-06-22T06:17:07;100960.19;;;23.58;100.00
11114;BME280;5610;52.154;9.198;2023-06-22T06:19:52;100963.41;;;23.53;100.00
11114;BME280;5610;52.154;9.198;2023-06-22T06:22:37;100956.63;;;23.49;100.00
11114;BME280;5610;52.154;9.198;2023-06-22T06:25:23;100963.78;;;23.50;100.00
11114;BME280;5610;52.154;9.198;2023-06-22T06:28:11;100964.97;;;23.56;100.00
11114;BME280;5610;52.154;9.198;2023-06-22T06:30:56;100948.84;;;23.63;100.00
11114;BME280;5610;52.154;9.198;2023-06-22T06:33:41;100944.91;;;23.73;100.00
11114;BME280;5610;52.154;9.198;2023-06-22T06:36:26;100945.41;;;23.85;100.00
11114;BME280;5610;52.154;9.198;2023-06-22T06:39:11;100947.75;;;23.96;100.00
11114;BME280;5610;52.154;9.198;2023-06-22T06:41:57;100946.00;;;24.11;100.00
11114;BME280;5610;52.154;9.198;2023-06-22T06:44:44;100942.19;;;24.37;100.00
11114;BME280;5610;52.154;9.198;2023-06-22T06:47:29;100944.00;;;24.53;100.00
11114;BME280;5610;52.154;9.198;2023-06-22T06:50:15;100943.91;;;24.69;100.00
11114;BME280;5610;52.154;9.198;2023-06-22T06:53:00;100935.28;;;24.88;100.00
11114;BME280;5610;52.154;9.198;2023-06-22T06:55:45;100941.13;;;25.00;100.00
11114;BME280;5610;52.154;9.198;2023-06-22T06:58:30;100942.38;;;24.98;100.00
11114;BME280;5610;52.154;9.198;2023-06-22T07:01:17;100939.09;;;25.02;100.00
11114;BME280;5610;52.154;9.198;2023-06-22T07:04:04;100946.81;;;25.22;100.00
11114;BME280;5610;52.154;9.198;2023-06-22T07:06:48;100939.81;;;25.42;100.00
11114;BME280;5610;52.154;9.198;2023-06-22T07:09:33;100933.66;;;25.63;100.00
11114;BME280;5610;52.154;9.198;2023-06-22T07:12:19;100932.56;;;25.72;100.00
11114;BME280;5610;52.154;9.198;2023-06-22T07:15:05;100935.41;;;25.93;100.00
11114;BME280;5610;52.154;9.198;2023-06-22T07:17:53;100930.13;;;26.07;100.00
11114;BME280;5610;52.154;9.198;2023-06-22T07:20:38;100929.03;;;26.01;100.00
11114;BME280;5610;52.154;9.198;2023-06-22T07:23:25;100938.25;;;26.15;100.00
11114;BME280;5610;52.154;9.198;2023-06-22T07:26:10;100948.50;;;26.27;100.00
11114;BME280;5610;52.154;9.198;2023-06-22T07:28:56;100927.97;;;26.32;100.00
11114;BME280;5610;52.154;9.198;2023-06-22T07:31:41;100938.63;;;26.41;100.00
11114;BME280;5610;52.154;9.198;2023-06-22T07:34:27;100942.56;;;26.53;100.00
11114;BME280;5610;52.154;9.198;2023-06-22T07:37:13;100941.63;;;26.61;100.00
11114;BME280;5610;52.154;9.198;2023-06-22T07:39:59;100946.13;;;26.69;100.00
11114;BME280;5610;52.154;9.198;2023-06-22T07:42:44;100939.75;;;26.83;100.00
11114;BME280;5610;52.154;9.198;2023-06-22T07:45:32;100937.53;;;27.08;100.00
11114;BME280;5610;52.154;9.198;2023-06-22T07:48:19;100938.91;;;26.82;100.00
11114;BME280;5610;52.154;9.198;2023-06-22T07:51:06;100943.97;;;27.00;100.00
11114;BME280;5610;52.154;9.198;2023-06-22T07:53:51;100943.34;;;26.83;100.00
11114;BME280;5610;52.154;9.198;2023-06-22T07:56:37;100944.19;;;26.84;100.00
11114;BME280;5610;52.154;9.198;2023-06-22T07:59:22;100936.53;;;26.94;100.00
11114;BME280;5610;52.154;9.198;2023-06-22T08:02:07;100942.91;;;27.01;100.00
11114;BME280;5610;52.154;9.198;2023-06-22T08:04:53;100933.56;;;27.10;100.00
11114;BME280;5610;52.154;9.198;2023-06-22T08:07:39;100934.75;;;27.23;100.00
11114;BME280;5610;52.154;9.198;2023-06-22T08:10:25;100934.44;;;27.39;100.00
11114;BME280;5610;52.154;9.198;2023-06-22T08:13:10;100932.19;;;27.43;100.00
11114;BME280;5610;52.154;9.198;2023-06-22T08:15:56;100928.84;;;27.47;100.00
11114;BME280;5610;52.154;9.198;2023-06-22T08:18:41;100935.22;;;27.54;100.00
11114;BME280;5610;52.154;9.198;2023-06-22T08:21:26;100938.78;;;27.55;100.00
11114;BME280;5610;52.154;9.198;2023-06-22T08:24:13;100939.63;;;27.55;100.00
11114;BME280;5610;52.154;9.198;2023-06-22T08:26:58;100935.16;;;27.48;100.00
11114;BME280;5610;52.154;9.198;2023-06-22T08:29:43;100936.25;;;27.53;100.00
11114;BME280;5610;52.154;9.198;2023-06-22T08:32:29;100932.28;;;27.56;100.00
11114;BME280;5610;52.154;9.198;2023-06-22T08:35:16;100920.88;;;27.52;100.00
11114;BME280;5610;52.154;9.198;2023-06-22T08:38:01;100917.19;;;27.67;100.00
11114;BME280;5610;52.154;9.198;2023-06-22T08:40:48;100915.19;;;27.75;100.00
11114;BME280;5610;52.154;9.198;2023-06-22T08:43:34;100919.00;;;27.81;97.94
11114;BME280;5610;52.154;9.198;2023-06-22T08:46:19;100926.47;;;27.94;100.00
11114;BME280;5610;52.154;9.198;2023-06-22T08:49:07;100918.72;;;28.04;100.00
11114;BME280;5610;52.154;9.198;2023-06-22T08:51:53;100911.66;;;28.23;100.00
11114;BME280;5610;52.154;9.198;2023-06-22T08:54:40;100902.09;;;28.46;100.00
11114;BME280;5610;52.154;9.198;2023-06-22T08:57:27;100890.59;;;28.78;100.00
11114;BME280;5610;52.154;9.198;2023-06-22T09:00:13;100880.09;;;28.94;100.00
11114;BME280;5610;52.154;9.198;2023-06-22T09:03:03;100886.44;;;29.02;100.00
11114;BME280;5610;52.154;9.198;2023-06-22T09:05:48;100882.00;;;28.94;100.00
11114;BME280;5610;52.154;9.198;2023-06-22T09:08:33;100892.28;;;28.79;100.00
11114;BME280;5610;52.154;9.198;2023-06-22T09:11:18;100899.66;;;28.71;100.00
11114;BME280;5610;52.154;9.198;2023-06-22T09:14:05;100896.44;;;28.48;96.55
11114;BME280;5610;52.154;9.198;2023-06-22T09:16:52;100890.06;;;28.41;97.33
11114;BME280;5610;52.154;9.198;2023-06-22T09:19:38;100895.59;;;28.61;97.92
11114;BME280;5610;52.154;9.198;2023-06-22T09:22:23;100884.47;;;28.82;99.15
11114;BME280;5610;52.154;9.198;2023-06-22T09:25:12;100883.06;;;28.93;96.15
11114;BME280;5610;52.154;9.198;2023-06-22T09:27:58;100875.25;;;29.03;96.00
11114;BME280;5610;52.154;9.198;2023-06-22T09:30:44;100866.38;;;28.94;93.05
11114;BME280;5610;52.154;9.198;2023-06-22T09:33:30;100863.59;;;28.88;93.71
11114;BME280;5610;52.154;9.198;2023-06-22T09:36:15;100860.00;;;28.81;94.74
11114;BME280;5610;52.154;9.198;2023-06-22T09:39:01;100860.19;;;28.66;91.47
11114;BME280;5610;52.154;9.198;2023-06-22T09:41:49;100858.69;;;28.50;94.36
11114;BME280;5610;52.154;9.198;2023-06-22T09:44:35;100849.16;;;28.39;95.47
11114;BME280;5610;52.154;9.198;2023-06-22T09:47:22;100853.56;;;28.34;100.00
11114;BME280;5610;52.154;9.198;2023-06-22T09:50:07;100845.94;;;28.29;100.00
11114;BME280;5610;52.154;9.198;2023-06-22T09:52:53;100852.53;;;28.35;100.00
11114;BME280;5610;52.154;9.198;2023-06-22T09:55:39;100850.00;;;28.33;100.00
11114;BME280;5610;52.154;9.198;2023-06-22T09:58:25;100855.00;;;28.30;99.83
11114;BME280;5610;52.154;9.198;2023-06-22T10:01:10;100858.63;;;28.37;100.00
11114;BME280;5610;52.154;9.198;2023-06-22T10:03:57;100848.50;;;28.31;100.00
11114;BME280;5610;52.154;9.198;2023-06-22T10:06:42;100850.31;;;28.24;98.15
11114;BME280;5610;52.154;9.198;2023-06-22T10:09:28;100848.03;;;28.27;100.00
11114;BME280;5610;52.154;9.198;2023-06-22T10:12:13;100843.38;;;28.21;100.00
11114;BME280;5610;52.154;9.198;2023-06-22T10:14:58;100853.78;;;27.91;100.00
11114;BME280;5610;52.154;9.198;2023-06-22T10:17:43;100845.38;;;27.92;100.00
11114;BME280;5610;52.154;9.198;2023-06-22T10:20:30;100848.91;;;27.86;100.00
11114;BME280;5610;52.154;9.198;2023-06-22T10:23:15;100847.75;;;28.09;100.00
11114;BME280;5610;52.154;9.198;2023-06-22T10:26:00;100846.44;;;28.46;100.00
11114;BME280;5610;52.154;9.198;2023-06-22T10:28:45;100838.75;;;29.03;96.74
11114;BME280;5610;52.154;9.198;2023-06-22T10:31:30;100832.81;;;29.59;92.96
11114;BME280;5610;52.154;9.198;2023-06-22T10:34:15;100836.91;;;30.52;88.27
11114;BME280;5610;52.154;9.198;2023-06-22T10:37:02;100817.84;;;31.39;86.16
11114;BME280;5610;52.154;9.198;2023-06-22T10:39:48;100815.75;;;31.96;78.93
11114;BME280;5610;52.154;9.198;2023-06-22T10:42:34;100819.94;;;32.35;73.47
11114;BME280;5610;52.154;9.198;2023-06-22T10:45:19;100816.28;;;32.53;67.46
11114;BME280;5610;52.154;9.198;2023-06-22T10:48:04;100814.78;;;33.34;70.34
11114;BME280;5610;52.154;9.198;2023-06-22T10:50:49;100809.97;;;34.17;66.30
11114;BME280;5610;52.154;9.198;2023-06-22T10:53:36;100808.16;;;34.67;60.52
11114;BME280;5610;52.154;9.198;2023-06-22T10:56:21;100805.69;;;35.16;56.41
11114;BME280;5610;52.154;9.198;2023-06-22T10:59:06;100798.41;;;35.66;54.59
11114;BME280;5610;52.154;9.198;2023-06-22T11:01:51;100789.38;;;36.41;52.91
11114;BME280;5610;52.154;9.198;2023-06-22T11:04:37;100794.69;;;37.07;53.19
11114;BME280;5610;52.154;9.198;2023-06-22T11:07:22;100795.47;;;38.70;46.39
11114;BME280;5610;52.154;9.198;2023-06-22T11:10:09;100785.91;;;40.22;43.49
11114;BME280;5610;52.154;9.198;2023-06-22T11:12:54;100790.06;;;40.69;42.01
11114;BME280;5610;52.154;9.198;2023-06-22T11:15:41;100778.66;;;42.19;40.49
11114;BME280;5610;52.154;9.198;2023-06-22T11:18:26;100763.47;;;44.20;38.15
11114;BME280;5610;52.154;9.198;2023-06-22T11:21:11;100743.81;;;44.20;36.75
11114;BME280;5610;52.154;9.198;2023-06-22T11:23:57;100747.38;;;42.69;37.28
11114;BME280;5610;52.154;9.198;2023-06-22T11:26:43;100733.81;;;41.10;39.37
11114;BME280;5610;52.154;9.198;2023-06-22T11:29:29;100729.66;;;39.25;42.26
11114;BME280;5610;52.154;9.198;2023-06-22T11:32:15;100722.16;;;38.34;43.75
11114;BME280;5610;52.154;9.198;2023-06-22T11:35:00;100724.69;;;37.52;46.31
11114;BME280;5610;52.154;9.198;2023-06-22T11:37:45;100715.09;;;36.53;48.00
11114;BME280;5610;52.154;9.198;2023-06-22T11:40:30;100710.41;;;35.78;50.33
11114;BME280;5610;52.154;9.198;2023-06-22T11:43:17;100712.13;;;35.02;53.60
11114;BME280;5610;52.154;9.198;2023-06-22T11:46:02;100712.66;;;34.48;55.05
11114;BME280;5610;52.154;9.198;2023-06-22T11:48:48;100711.00;;;34.19;54.38
11114;BME280;5610;52.154;9.198;2023-06-22T11:51:33;100699.72;;;33.92;56.02
11114;BME280;5610;52.154;9.198;2023-06-22T11:54:18;100701.25;;;33.99;54.79
11114;BME280;5610;52.154;9.198;2023-06-22T11:57:04;100692.09;;;33.70;57.05
11114;BME280;5610;52.154;9.198;2023-06-22T11:59:51;100690.78;;;33.61;56.18
11114;BME280;5610;52.154;9.198;2023-06-22T12:02:36;100686.28;;;33.43;55.30
11114;BME280;5610;52.154;9.198;2023-06-22T12:05:22;100688.06;;;33.49;56.17
11114;BME280;5610;52.154;9.198;2023-06-22T12:08:08;100692.88;;;33.42;57.26
11114;BME280;5610;52.154;9.198;2023-06-22T12:10:53;100680.38;;;33.40;56.66
11114;BME280;5610;52.154;9.198;2023-06-22T12:13:39;100681.72;;;33.25;56.22
11114;BME280;5610;52.154;9.198;2023-06-22T12:16:25;100677.66;;;32.81;58.83
11114;BME280;5610;52.154;9.198;2023-06-22T12:19:11;100681.66;;;32.32;59.37
11114;BME280;5610;52.154;9.198;2023-06-22T12:21:56;100675.69;;;31.75;60.58
11114;BME280;5610;52.154;9.198;2023-06-22T12:24:41;100667.31;;;31.33;62.65
11114;BME280;5610;52.154;9.198;2023-06-22T12:27:26;100669.28;;;31.07;64.20
11114;BME280;5610;52.154;9.198;2023-06-22T12:30:13;100663.69;;;30.96;65.80
11114;BME280;5610;52.154;9.198;2023-06-22T12:33:00;100666.59;;;31.01;71.23
11114;BME280;5610;52.154;9.198;2023-06-22T12:35:45;100663.13;;;31.30;73.01
11114;BME280;5610;52.154;9.198;2023-06-22T12:38:33;100657.72;;;31.72;74.11
11114;BME280;5610;52.154;9.198;2023-06-22T12:41:18;100664.78;;;32.40;67.41
11114;BME280;5610;52.154;9.198;2023-06-22T12:44:03;100662.69;;;32.89;63.30
11114;BME280;5610;52.154;9.198;2023-06-22T12:46:48;100661.09;;;33.16;63.53
11114;BME280;5610;52.154;9.198;2023-06-22T12:49:35;100659.88;;;33.24;61.95
11114;BME280;5610;52.154;9.198;2023-06-22T12:52:20;100658.56;;;33.15;61.21
11114;BME280;5610;52.154;9.198;2023-06-22T12:55:07;100656.53;;;33.10;62.04
11114;BME280;5610;52.154;9.198;2023-06-22T12:57:52;100655.03;;;33.31;59.27
11114;BME280;5610;52.154;9.198;2023-06-22T13:00:38;100667.19;;;33.42;59.25
11114;BME280;5610;52.154;9.198;2023-06-22T13:03:24;100666.53;;;32.88;63.29
11114;BME280;5610;52.154;9.198;2023-06-22T13:06:12;100675.66;;;32.23;63.95
11114;BME280;5610;52.154;9.198;2023-06-22T13:08:58;100675.28;;;31.71;66.87
11114;BME280;5610;52.154;9.198;2023-06-22T13:11:43;100681.44;;;31.18;69.70
11114;BME280;5610;52.154;9.198;2023-06-22T13:14:28;100684.50;;;30.67;71.44
11114;BME280;5610;52.154;9.198;2023-06-22T13:17:13;100681.63;;;30.23;75.51
11114;BME280;5610;52.154;9.198;2023-06-22T13:19:59;100679.53;;;29.87;83.09
11114;BME280;5610;52.154;9.198;2023-06-22T13:22:45;100677.16;;;29.52;85.70
11114;BME280;5610;52.154;9.198;2023-06-22T13:25:31;100678.53;;;29.17;87.87
11114;BME280;5610;52.154;9.198;2023-06-22T13:28:16;100669.94;;;28.80;92.35
11114;BME280;5610;52.154;9.198;2023-06-22T13:31:01;100660.03;;;28.46;95.93
11114;BME280;5610;52.154;9.198;2023-06-22T13:33:46;100654.94;;;28.10;100.00
11114;BME280;5610;52.154;9.198;2023-06-22T13:36:33;100646.03;;;27.88;100.00
11114;BME280;5610;52.154;9.198;2023-06-22T13:39:19;100611.41;;;27.60;100.00
11114;BME280;5610;52.154;9.198;2023-06-22T13:42:05;100607.13;;;27.38;100.00
11114;BME280;5610;52.154;9.198;2023-06-22T13:44:51;100646.44;;;27.24;100.00
11114;BME280;5610;52.154;9.198;2023-06-22T13:47:36;100633.97;;;27.15;100.00
11114;BME280;5610;52.154;9.198;2023-06-22T13:50:22;100608.06;;;27.10;100.00
11114;BME280;5610;52.154;9.198;2023-06-22T13:53:07;100591.06;;;27.15;100.00
11114;BME280;5610;52.154;9.198;2023-06-22T13:55:54;100566.84;;;27.19;100.00
11114;BME280;5610;52.154;9.198;2023-06-22T13:58:39;100551.53;;;27.24;100.00
11114;BME280;5610;52.154;9.198;2023-06-22T14:01:24;100538.47;;;27.26;100.00
11114;BME280;5610;52.154;9.198;2023-06-22T14:04:09;100550.44;;;27.19;100.00
11114;BME280;5610;52.154;9.198;2023-06-22T14:06:55;100555.19;;;27.03;100.00
11114;BME280;5610;52.154;9.198;2023-06-22T14:09:40;100562.44;;;26.76;100.00
11114;BME280;5610;52.154;9.198;2023-06-22T14:12:27;100596.16;;;26.55;100.00
11114;BME280;5610;52.154;9.198;2023-06-22T14:15:13;100614.81;;;26.24;100.00
11114;BME280;5610;52.154;9.198;2023-06-22T14:17:58;100640.19;;;25.96;100.00
11114;BME280;5610;52.154;9.198;2023-06-22T14:20:43;100659.91;;;25.77;100.00
11114;BME280;5610;52.154;9.198;2023-06-22T14:23:29;100654.09;;;25.65;100.00
11114;BME280;5610;52.154;9.198;2023-06-22T14:26:14;100645.16;;;25.57;100.00
11114;BME280;5610;52.154;9.198;2023-06-22T14:29:02;100626.66;;;25.52;100.00
11114;BME280;5610;52.154;9.198;2023-06-22T14:31:48;100627.16;;;25.41;100.00
11114;BME280;5610;52.154;9.198;2023-06-22T14:34:34;100622.97;;;25.24;100.00